Time;durP1;ratioP1;P1;durP2;ratioP2;P2;SDS_P1;SDS_P2;PMS_P1;PMS_P2;Temp;Humidity;BMP_temperature;BMP_pressure;BME280_temperature;BME280_humidity;BME280_pressure;Samples;Min_cycle;Max_cycle;Signal;HPM_P1;HPM_P2
2023/05/19 00:01:46;;;;;;;;;;;;;;;15.01;100.00;99429.75;5074336;28;831;-55
2023/05/19 00:04:14;;;;;;;;;;;;;;;15.06;100.00;99434.75;5073976;28;1943;-55
2023/05/19 00:06:41;;;;;;;;;;;;;;;15.04;100.00;99429.66;5074075;28;930;-51
2023/05/19 00:09:09;;;;;;;;;;;;;;;15.00;100.00;99434.53;5074261;28;894;-53
2023/05/19 00:11:37;;;;;;;;;;;;;;;14.97;100.00;99431.84;5073782;28;1481;-54
2023/05/19 00:14:06;;;;;;;;;;;;;;;14.96;100.00;99431.06;5074250;28;944;-50
2023/05/19 00:16:33;;;;;;;;;;;;;;;14.88;100.00;99415.81;5074254;28;870;-53
2023/05/19 00:19:02;;;;;;;;;;;;;;;14.81;100.00;99427.91;5073961;28;870;-51
2023/05/19 00:21:30;;;;;;;;;;;;;;;14.83;100.00;99425.47;5073858;28;914;-54
2023/05/19 00:23:57;;;;;;;;;;;;;;;14.86;100.00;99424.59;5073969;28;1961;-54
2023/05/19 00:26:23;;;;;;;;;;;;;;;14.81;100.00;99429.94;5073741;28;945;-53
2023/05/19 00:28:50;;;;;;;;;;;;;;;14.78;100.00;99428.00;5073808;28;920;-51
2023/05/19 00:31:19;;;;;;;;;;;;;;;14.75;100.00;99426.91;5073635;28;847;-53
2023/05/19 00:33:46;;;;;;;;;;;;;;;14.77;100.00;99427.22;5073861;28;839;-54
2023/05/19 00:36:13;;;;;;;;;;;;;;;14.76;100.00;99434.00;5074059;28;859;-52
2023/05/19 00:38:40;;;;;;;;;;;;;;;14.76;100.00;99425.66;5074114;28;890;-56
2023/05/19 00:41:08;;;;;;;;;;;;;;;14.74;100.00;99430.09;5074043;28;874;-54
2023/05/19 00:43:35;;;;;;;;;;;;;;;14.80;100.00;99429.13;5073654;28;1928;-50
2023/05/19 00:46:02;;;;;;;;;;;;;;;14.81;100.00;99429.94;5073646;28;1061;-53
2023/05/19 00:48:29;;;;;;;;;;;;;;;14.76;100.00;99434.00;5073472;28;827;-56
2023/05/19 00:51:00;;;;;;;;;;;;;;;14.72;100.00;99426.97;5073551;28;921;-53
2023/05/19 00:53:28;;;;;;;;;;;;;;;14.75;100.00;99429.69;5073178;28;941;-54
2023/05/19 00:55:55;;;;;;;;;;;;;;;14.73;100.00;99426.56;5073054;28;965;-55
2023/05/19 00:58:27;;;;;;;;;;;;;;;14.77;100.00;99429.25;5073196;28;870;-53
2023/05/19 01:01:06;;;;;;;;;;;;;;;14.71;100.00;99429.00;5073093;28;943;-54
2023/05/19 01:03:36;;;;;;;;;;;;;;;14.74;100.00;99432.88;5073011;28;1886;-54
2023/05/19 01:06:06;;;;;;;;;;;;;;;14.72;100.00;99441.66;5073044;28;982;-51
2023/05/19 01:08:34;;;;;;;;;;;;;;;14.77;100.00;99435.59;5073037;28;1096;-52
2023/05/19 01:11:02;;;;;;;;;;;;;;;14.76;100.00;99424.88;5072737;28;1433;-55
2023/05/19 01:13:29;;;;;;;;;;;;;;;14.70;100.00;99433.78;5072895;28;870;-55
2023/05/19 01:15:59;;;;;;;;;;;;;;;14.74;100.00;99439.22;5072259;28;933;-55
2023/05/19 01:18:36;;;;;;;;;;;;;;;14.74;100.00;99449.56;5072635;28;1089;-54
2023/05/19 01:21:23;;;;;;;;;;;;;;;14.68;100.00;99450.13;5072741;28;826;-56
2023/05/19 01:24:21;;;;;;;;;;;;;;;14.72;100.00;99452.78;5041153;28;1918;-55
2023/05/19 01:27:05;;;;;;;;;;;;;;;14.72;100.00;99460.38;5010698;28;1224;-52
2023/05/19 01:29:49;;;;;;;;;;;;;;;14.65;100.00;99458.56;5010781;28;911;-54
2023/05/19 01:32:18;;;;;;;;;;;;;;;14.69;100.00;99450.91;5011096;28;895;-55
2023/05/19 01:34:48;;;;;;;;;;;;;;;14.73;100.00;99450.81;5010811;28;836;-54
2023/05/19 01:37:15;;;;;;;;;;;;;;;14.79;100.00;99424.03;5010652;28;1102;-54
2023/05/19 01:39:43;;;;;;;;;;;;;;;14.90;100.00;99436.41;5010582;28;930;-54
2023/05/19 01:42:11;;;;;;;;;;;;;;;14.98;100.00;99464.00;5010576;28;840;-50
2023/05/19 01:44:38;;;;;;;;;;;;;;;14.88;100.00;99466.66;5010479;28;1894;-52
2023/05/19 01:47:06;;;;;;;;;;;;;;;14.77;100.00;99468.97;5010574;28;973;-51
2023/05/19 01:49:32;;;;;;;;;;;;;;;14.63;100.00;99466.56;5010336;28;978;-50
2023/05/19 01:51:59;;;;;;;;;;;;;;;14.60;100.00;99471.00;5010393;28;1050;-51
2023/05/19 01:54:26;;;;;;;;;;;;;;;14.62;100.00;99467.78;5010241;28;938;-51
2023/05/19 01:57:02;;;;;;;;;;;;;;;14.63;100.00;99477.69;5010322;28;887;-53
2023/05/19 01:59:37;;;;;;;;;;;;;;;14.61;100.00;99486.47;5010211;28;1010;-51
2023/05/19 02:02:08;;;;;;;;;;;;;;;14.56;100.00;99481.44;5013914;28;988;-51
2023/05/19 02:04:50;;;;;;;;;;;;;;;14.57;100.00;99485.78;5070499;28;1945;-51
2023/05/19 02:07:25;;;;;;;;;;;;;;;14.54;100.00;99488.63;5071924;28;842;-50
2023/05/19 02:10:07;;;;;;;;;;;;;;;14.49;100.00;99492.72;5071940;28;1242;-52
2023/05/19 02:12:40;;;;;;;;;;;;;;;14.50;100.00;99491.50;5071875;28;859;-52
2023/05/19 02:15:13;;;;;;;;;;;;;;;14.52;100.00;99485.50;5071666;28;958;-50
2023/05/19 02:17:43;;;;;;;;;;;;;;;14.48;100.00;99489.16;5071670;28;911;-50
2023/05/19 02:20:10;;;;;;;;;;;;;;;14.40;100.00;99489.78;5071875;28;971;-51
2023/05/19 02:22:37;;;;;;;;;;;;;;;14.34;100.00;99503.44;5071847;28;1938;-51
2023/05/19 02:25:04;;;;;;;;;;;;;;;14.30;100.00;99500.72;5070637;28;1809;-49
2023/05/19 02:27:32;;;;;;;;;;;;;;;14.27;100.00;99506.38;5071228;28;929;-52
2023/05/19 02:29:59;;;;;;;;;;;;;;;14.21;100.00;99506.13;5071772;28;911;-53
2023/05/19 02:32:25;;;;;;;;;;;;;;;14.19;100.00;99505.78;5071798;28;914;-51
2023/05/19 02:34:56;;;;;;;;;;;;;;;14.14;100.00;99509.06;5071731;28;925;-50
2023/05/19 02:37:24;;;;;;;;;;;;;;;14.06;100.00;99505.69;5071526;28;839;-51
2023/05/19 02:39:51;;;;;;;;;;;;;;;14.11;100.00;99511.94;5071489;28;911;-53
2023/05/19 02:42:17;;;;;;;;;;;;;;;14.18;100.00;99509.00;5070097;28;1290;-51
2023/05/19 02:44:44;;;;;;;;;;;;;;;14.14;100.00;99519.41;5071404;28;918;-51
2023/05/19 02:47:12;;;;;;;;;;;;;;;14.05;100.00;99526.34;5071340;28;979;-51
2023/05/19 02:49:39;;;;;;;;;;;;;;;14.01;100.00;99516.53;5071356;28;883;-55
2023/05/19 02:52:06;;;;;;;;;;;;;;;14.01;100.00;99520.09;5071272;28;827;-51
2023/05/19 02:54:33;;;;;;;;;;;;;;;14.01;100.00;99522.88;5071388;28;851;-56
2023/05/19 02:57:00;;;;;;;;;;;;;;;14.03;100.00;99528.00;5071290;28;989;-53
2023/05/19 02:59:27;;;;;;;;;;;;;;;14.01;100.00;99525.66;5071283;28;938;-50
2023/05/19 03:02:00;;;;;;;;;;;;;;;14.00;100.00;99521.31;5071230;28;910;-52
2023/05/19 03:04:28;;;;;;;;;;;;;;;14.00;100.00;99523.31;5071143;28;1889;-54
2023/05/19 03:06:56;;;;;;;;;;;;;;;14.05;100.00;99526.34;5071424;28;851;-51
2023/05/19 03:09:23;;;;;;;;;;;;;;;14.14;100.00;99513.84;5071407;28;997;-51
2023/05/19 03:11:49;;;;;;;;;;;;;;;14.23;100.00;99519.56;5071050;28;1163;-56
2023/05/19 03:14:17;;;;;;;;;;;;;;;14.32;100.00;99519.75;5071202;28;871;-55
2023/05/19 03:16:44;;;;;;;;;;;;;;;14.29;100.00;99518.66;5071405;28;954;-52
2023/05/19 03:19:10;;;;;;;;;;;;;;;14.37;100.00;99524.00;5070946;28;1045;-54
2023/05/19 03:21:37;;;;;;;;;;;;;;;14.44;100.00;99527.38;5070933;28;919;-54
2023/05/19 03:24:04;;;;;;;;;;;;;;;14.46;100.00;99527.72;5070994;28;1979;-54
2023/05/19 03:26:31;;;;;;;;;;;;;;;14.46;100.00;99524.19;5070895;28;904;-56
2023/05/19 03:28:56;;;;;;;;;;;;;;;14.50;100.00;99536.75;5071067;28;835;-54
2023/05/19 03:31:23;;;;;;;;;;;;;;;14.55;100.00;99537.47;5070910;28;922;-55
2023/05/19 03:33:50;;;;;;;;;;;;;;;14.57;100.00;99544.16;5070913;28;990;-55
2023/05/19 03:36:16;;;;;;;;;;;;;;;14.57;100.00;99535.06;5070934;28;816;-55
2023/05/19 03:38:43;;;;;;;;;;;;;;;14.58;100.00;99531.84;5072298;28;871;-54
2023/05/19 03:41:10;;;;;;;;;;;;;;;14.59;100.00;99529.84;5074461;28;930;-53
2023/05/19 03:43:36;;;;;;;;;;;;;;;14.59;100.00;99535.41;5074599;28;1893;-56
2023/05/19 03:46:03;;;;;;;;;;;;;;;14.59;100.00;99546.53;5074705;28;890;-50
2023/05/19 03:48:30;;;;;;;;;;;;;;;14.60;100.00;99548.88;5074408;28;915;-55
2023/05/19 03:50:56;;;;;;;;;;;;;;;14.62;100.00;99548.44;5074343;28;858;-55
2023/05/19 03:53:24;;;;;;;;;;;;;;;14.69;100.00;99545.47;5074416;28;827;-51
2023/05/19 03:55:50;;;;;;;;;;;;;;;14.77;100.00;99546.84;5074496;28;824;-53
2023/05/19 03:58:17;;;;;;;;;;;;;;;14.83;100.00;99541.53;5074306;28;1197;-51
2023/05/19 04:00:45;;;;;;;;;;;;;;;14.97;100.00;99545.94;5074383;28;887;-55
2023/05/19 04:03:11;;;;;;;;;;;;;;;15.08;100.00;99555.59;5074116;28;1890;-53
2023/05/19 04:05:38;;;;;;;;;;;;;;;15.22;100.00;99551.59;5074276;28;878;-52
2023/05/19 04:11:07;;;;;;;;;;;;;;;15.38;100.00;99561.13;5069958;28;1188;-56
2023/05/19 04:13:34;;;;;;;;;;;;;;;15.44;100.00;99564.91;5074341;28;906;-50
2023/05/19 04:16:01;;;;;;;;;;;;;;;15.44;100.00;99549.00;5074265;28;882;-52
2023/05/19 04:18:28;;;;;;;;;;;;;;;15.56;100.00;99563.41;5074532;28;945;-50
2023/05/19 04:20:55;;;;;;;;;;;;;;;15.63;100.00;99555.59;5074068;28;894;-53
2023/05/19 04:23:22;;;;;;;;;;;;;;;15.67;100.00;99563.88;5074290;28;1910;-52
2023/05/19 04:25:48;;;;;;;;;;;;;;;15.75;100.00;99554.09;5074104;28;996;-55
2023/05/19 04:28:16;;;;;;;;;;;;;;;15.81;100.00;99565.47;5074695;28;832;-50
2023/05/19 04:30:45;;;;;;;;;;;;;;;15.87;100.00;99564.50;5073956;28;942;-51
2023/05/19 04:33:12;;;;;;;;;;;;;;;15.92;100.00;99558.34;5073752;28;836;-53
2023/05/19 04:35:39;;;;;;;;;;;;;;;16.00;100.00;99563.69;5073679;28;855;-52
2023/05/19 04:38:06;;;;;;;;;;;;;;;16.01;100.00;99573.63;5073513;28;1002;-53
2023/05/19 04:40:32;;;;;;;;;;;;;;;15.99;100.00;99573.28;5073483;28;971;-55
2023/05/19 04:43:00;;;;;;;;;;;;;;;15.96;100.00;99574.97;5073523;28;1950;-54
2023/05/19 04:45:28;;;;;;;;;;;;;;;15.95;100.00;99581.75;5073636;28;915;-50
2023/05/19 04:47:56;;;;;;;;;;;;;;;15.97;100.00;99579.31;5073793;28;823;-53
2023/05/19 04:50:24;;;;;;;;;;;;;;;16.05;100.00;99589.03;5072317;28;977;-54
2023/05/19 04:52:50;;;;;;;;;;;;;;;16.18;100.00;99591.03;5073329;28;964;-54
2023/05/19 04:55:18;;;;;;;;;;;;;;;16.22;100.00;99589.69;5073322;28;911;-54
2023/05/19 04:57:45;;;;;;;;;;;;;;;16.24;100.00;99581.66;5073142;28;913;-55
2023/05/19 05:00:13;;;;;;;;;;;;;;;16.25;100.00;99577.63;5073142;28;926;-54
2023/05/19 05:02:41;;;;;;;;;;;;;;;16.26;100.00;99579.22;5073074;28;1945;-53
2023/05/19 05:05:08;;;;;;;;;;;;;;;16.31;100.00;99577.88;5073124;28;819;-50
2023/05/19 05:07:35;;;;;;;;;;;;;;;16.39;100.00;99595.94;5073014;28;910;-55
2023/05/19 05:10:02;;;;;;;;;;;;;;;16.44;100.00;99591.78;5073095;28;1383;-52
2023/05/19 05:12:30;;;;;;;;;;;;;;;16.55;100.00;99600.59;5072805;28;867;-51
2023/05/19 05:14:57;;;;;;;;;;;;;;;16.70;100.00;99600.91;5072872;28;914;-50
2023/05/19 05:17:24;;;;;;;;;;;;;;;16.80;100.00;99593.41;5072765;28;899;-55
2023/05/19 05:19:51;;;;;;;;;;;;;;;16.81;100.00;99609.72;5072815;28;840;-53
2023/05/19 05:22:18;;;;;;;;;;;;;;;16.80;100.00;99610.97;5071557;28;902;-52
2023/05/19 05:24:45;;;;;;;;;;;;;;;16.88;100.00;99609.50;5072616;28;1913;-51
2023/05/19 05:27:13;;;;;;;;;;;;;;;16.99;100.00;99609.13;5072636;28;899;-52
2023/05/19 05:29:40;;;;;;;;;;;;;;;16.99;100.00;99614.72;5072459;28;903;-53
2023/05/19 05:32:07;;;;;;;;;;;;;;;16.89;100.00;99599.09;5072531;28;990;-54
2023/05/19 05:34:36;;;;;;;;;;;;;;;17.00;100.00;99601.53;5072481;28;831;-56
2023/05/19 05:37:03;;;;;;;;;;;;;;;17.03;100.00;99603.44;5072468;28;874;-56
2023/05/19 05:39:30;;;;;;;;;;;;;;;17.12;100.00;99611.88;5072354;28;887;-52
2023/05/19 05:41:57;;;;;;;;;;;;;;;17.25;100.00;99612.59;5072316;28;892;-54
2023/05/19 05:44:24;;;;;;;;;;;;;;;17.47;100.00;99614.63;5072198;28;1898;-54
2023/05/19 05:53:02;;;;;;;;;;;;;;;17.63;100.00;99617.25;5072204;28;655;-51
2023/05/19 05:55:30;;;;;;;;;;;;;;;17.67;100.00;99623.47;5072134;28;902;-55
2023/05/19 05:57:57;;;;;;;;;;;;;;;17.62;100.00;99628.88;5072027;28;816;-51
2023/05/19 06:00:26;;;;;;;;;;;;;;;17.68;100.00;99615.88;5071955;28;894;-53
2023/05/19 06:02:53;;;;;;;;;;;;;;;17.75;100.00;99626.78;5071839;28;1946;-51
2023/05/19 06:05:20;;;;;;;;;;;;;;;17.70;100.00;99638.56;5071917;28;856;-50
2023/05/19 06:07:47;;;;;;;;;;;;;;;17.72;100.00;99631.28;5071853;28;958;-54
2023/05/19 06:10:14;;;;;;;;;;;;;;;17.92;100.00;99641.34;5071906;28;1431;-55
2023/05/19 06:12:42;;;;;;;;;;;;;;;17.95;100.00;99646.06;5071866;28;835;-52
2023/05/19 06:15:09;;;;;;;;;;;;;;;18.08;100.00;99643.94;5071679;28;970;-54
2023/05/19 06:17:35;;;;;;;;;;;;;;;18.11;100.00;99659.78;5071777;28;902;-53
2023/05/19 06:20:07;;;;;;;;;;;;;;;17.88;100.00;99652.69;5071641;28;851;-53
2023/05/19 06:22:34;;;;;;;;;;;;;;;17.63;100.00;99663.97;5071580;28;1918;-54
2023/05/19 06:25:00;;;;;;;;;;;;;;;17.46;100.00;99668.97;5071879;28;848;-56
2023/05/19 06:27:27;;;;;;;;;;;;;;;17.32;100.00;99668.22;5071698;28;863;-52
2023/05/19 06:29:54;;;;;;;;;;;;;;;17.42;100.00;99663.50;5071871;28;819;-52
2023/05/19 06:32:21;;;;;;;;;;;;;;;17.34;100.00;99667.75;5071537;28;832;-55
2023/05/19 06:34:53;;;;;;;;;;;;;;;17.56;100.00;99676.19;5071567;28;565;-51
2023/05/19 06:37:21;;;;;;;;;;;;;;;17.73;100.00;99666.38;5071402;28;923;-52
2023/05/19 06:39:51;;;;;;;;;;;;;;;17.99;100.00;99668.25;5071540;28;910;-52
2023/05/19 06:42:21;;;;;;;;;;;;;;;18.29;100.00;99667.50;5071517;28;902;-56
2023/05/19 06:44:49;;;;;;;;;;;;;;;18.80;100.00;99676.75;5071471;28;1882;-50
2023/05/19 06:47:16;;;;;;;;;;;;;;;19.26;100.00;99679.66;5071505;28;898;-51
2023/05/19 06:49:45;;;;;;;;;;;;;;;19.47;100.00;99680.75;5071364;28;870;-51
2023/05/19 06:52:12;;;;;;;;;;;;;;;19.71;100.00;99686.53;5071314;28;914;-53
2023/05/19 06:54:39;;;;;;;;;;;;;;;19.75;100.00;99682.31;5071608;28;956;-51
2023/05/19 06:57:05;;;;;;;;;;;;;;;19.78;100.00;99686.22;5071316;28;919;-54
2023/05/19 06:59:32;;;;;;;;;;;;;;;19.93;100.00;99689.19;5071549;28;1037;-54
2023/05/19 07:01:58;;;;;;;;;;;;;;;20.05;100.00;99691.00;5071195;28;899;-51
2023/05/19 07:04:26;;;;;;;;;;;;;;;20.03;100.00;99696.31;5071230;28;1885;-53
2023/05/19 07:06:53;;;;;;;;;;;;;;;20.03;100.00;99692.72;5070084;28;959;-50
2023/05/19 07:09:20;;;;;;;;;;;;;;;20.24;100.00;99696.59;5071374;28;944;-54
2023/05/19 07:11:46;;;;;;;;;;;;;;;20.33;100.00;99693.75;5071049;28;1062;-49
2023/05/19 07:14:13;;;;;;;;;;;;;;;20.43;100.00;99700.13;5073526;28;835;-56
2023/05/19 07:16:39;;;;;;;;;;;;;;;20.86;100.00;99689.66;5075239;28;906;-54
2023/05/19 07:19:06;;;;;;;;;;;;;;;21.78;100.00;99689.78;5073760;28;883;-56
2023/05/19 07:21:33;;;;;;;;;;;;;;;22.77;96.29;99693.25;5075006;28;875;-55
2023/05/19 07:24:00;;;;;;;;;;;;;;;23.49;93.76;99694.75;5075297;28;1914;-53
2023/05/19 07:26:28;;;;;;;;;;;;;;;23.79;90.16;99691.75;5075019;28;824;-56
2023/05/19 07:28:55;;;;;;;;;;;;;;;23.92;88.58;99694.22;5074980;28;1024;-57
2023/05/19 07:31:22;;;;;;;;;;;;;;;23.69;80.13;99701.66;5074959;28;836;-57
2023/05/19 07:33:49;;;;;;;;;;;;;;;23.68;80.64;99688.81;5074816;28;812;-58
2023/05/19 07:36:15;;;;;;;;;;;;;;;24.22;88.09;99703.25;5074737;28;882;-56
2023/05/19 07:38:43;;;;;;;;;;;;;;;25.18;82.56;99698.28;5074639;28;899;-58
2023/05/19 07:41:09;;;;;;;;;;;;;;;25.49;70.66;99690.97;5074631;28;1185;-58
2023/05/19 07:43:37;;;;;;;;;;;;;;;24.91;72.13;99694.00;5074476;28;1951;-59
2023/05/19 07:46:04;;;;;;;;;;;;;;;24.97;73.77;99700.47;5074826;28;860;-57
2023/05/19 07:48:31;;;;;;;;;;;;;;;25.76;73.34;99695.19;5074782;28;855;-58
2023/05/19 07:50:58;;;;;;;;;;;;;;;26.19;67.45;99700.69;5074503;28;847;-58
2023/05/19 07:53:25;;;;;;;;;;;;;;;26.36;67.10;99712.00;5074449;28;903;-58
2023/05/19 07:55:52;;;;;;;;;;;;;;;25.73;61.15;99710.34;5074487;28;832;-58
2023/05/19 07:58:19;;;;;;;;;;;;;;;25.51;63.79;99711.81;5074286;28;913;-58
2023/05/19 08:00:46;;;;;;;;;;;;;;;25.87;63.37;99701.63;5074298;28;843;-58
2023/05/19 08:03:16;;;;;;;;;;;;;;;25.70;62.04;99714.19;5074294;28;1902;-58
2023/05/19 08:05:44;;;;;;;;;;;;;;;25.52;62.88;99721.84;5074138;28;950;-58
2023/05/19 08:08:11;;;;;;;;;;;;;;;25.19;66.50;99717.53;5074103;28;944;-58
2023/05/19 08:10:38;;;;;;;;;;;;;;;25.20;64.10;99721.16;5072615;28;1256;-58
2023/05/19 08:13:05;;;;;;;;;;;;;;;25.05;63.66;99716.47;5074145;28;870;-59
2023/05/19 08:15:32;;;;;;;;;;;;;;;25.41;66.10;99705.63;5074031;28;848;-57
2023/05/19 08:18:00;;;;;;;;;;;;;;;25.64;56.28;99706.44;5073950;28;840;-59
2023/05/19 08:20:27;;;;;;;;;;;;;;;24.50;61.65;99726.09;5073865;28;927;-58
2023/05/19 08:22:54;;;;;;;;;;;;;;;24.93;64.51;99725.38;5073821;28;1913;-58
2023/05/19 08:25:21;;;;;;;;;;;;;;;26.11;59.90;99714.56;5072482;28;910;-58
2023/05/19 08:27:47;;;;;;;;;;;;;;;26.79;64.33;99726.69;5072599;28;836;-58
2023/05/19 08:30:17;;;;;;;;;;;;;;;27.14;57.20;99719.69;5073740;28;941;-58
2023/05/19 08:32:45;;;;;;;;;;;;;;;27.21;58.23;99718.38;5073742;28;828;-58
2023/05/19 08:35:12;;;;;;;;;;;;;;;26.94;60.79;99717.16;5073668;28;922;-59
2023/05/19 08:37:38;;;;;;;;;;;;;;;26.76;56.56;99716.41;5073665;28;1055;-58
2023/05/19 08:40:07;;;;;;;;;;;;;;;26.67;55.79;99710.97;5073555;28;944;-58
2023/05/19 08:42:34;;;;;;;;;;;;;;;26.31;58.63;99715.59;5073796;28;1890;-58
2023/05/19 08:45:02;;;;;;;;;;;;;;;26.31;61.49;99705.06;5073516;28;870;-58
2023/05/19 08:47:29;;;;;;;;;;;;;;;26.05;54.49;99723.06;5073282;28;941;-59
2023/05/19 08:50:02;;;;;;;;;;;;;;;25.66;57.75;99715.19;5073414;28;847;-59
2023/05/19 08:52:40;;;;;;;;;;;;;;;25.83;63.05;99712.41;5073373;28;870;-58
2023/05/19 08:55:14;;;;;;;;;;;;;;;25.50;56.42;99704.63;5073340;28;815;-59
2023/05/19 08:57:41;;;;;;;;;;;;;;;25.61;59.27;99709.53;5073282;28;866;-59
2023/05/19 09:00:10;;;;;;;;;;;;;;;25.77;58.16;99708.03;5073169;28;950;-59
2023/05/19 09:02:37;;;;;;;;;;;;;;;25.55;56.36;99712.34;5072983;28;1893;-59
2023/05/19 09:05:05;;;;;;;;;;;;;;;25.91;60.22;99718.41;5073321;28;915;-59
2023/05/19 09:07:34;;;;;;;;;;;;;;;24.99;57.20;99731.84;5071924;28;906;-59
2023/05/19 09:10:01;;;;;;;;;;;;;;;24.08;58.87;99713.38;5073529;28;1121;-56
2023/05/19 09:12:28;;;;;;;;;;;;;;;23.70;57.44;99712.41;5073141;28;1073;-57
2023/05/19 09:14:55;;;;;;;;;;;;;;;24.72;60.13;99722.66;5073101;28;835;-58
2023/05/19 09:17:22;;;;;;;;;;;;;;;25.34;59.41;99714.56;5072925;28;898;-56
2023/05/19 09:19:50;;;;;;;;;;;;;;;26.12;57.52;99709.66;5072950;28;898;-58
2023/05/19 09:22:19;;;;;;;;;;;;;;;26.56;56.94;99708.94;5073004;28;1183;-57
2023/05/19 09:24:47;;;;;;;;;;;;;;;26.70;56.91;99707.13;5072692;28;1914;-58
2023/05/19 09:27:22;;;;;;;;;;;;;;;26.61;58.78;99705.34;5072585;28;961;-58
2023/05/19 09:29:49;;;;;;;;;;;;;;;26.19;53.98;99686.50;5072512;28;922;-58
2023/05/19 09:32:26;;;;;;;;;;;;;;;25.60;57.96;99708.75;5072538;28;958;-58
2023/05/19 09:34:53;;;;;;;;;;;;;;;25.83;59.79;99692.59;5072886;28;800;-58
2023/05/19 09:37:26;;;;;;;;;;;;;;;26.30;53.77;99686.50;5072352;28;891;-58
2023/05/19 10:10:54;;;;;;;;;;;;;;;24.17;63.74;99701.88;5417271;22;1683;-65
2023/05/19 10:13:23;;;;;;;;;;;;;;;23.76;64.77;99702.00;5051819;28;859;-64
2023/05/19 10:15:51;;;;;;;;;;;;;;;23.21;63.94;99700.03;5052594;28;784;-64
2023/05/19 10:18:18;;;;;;;;;;;;;;;22.96;64.17;99705.06;5051954;28;867;-65
2023/05/19 10:20:46;;;;;;;;;;;;;;;22.65;64.00;99702.81;5034048;28;2234;-63
2023/05/19 10:23:13;;;;;;;;;;;;;;;22.57;66.34;99707.28;5051703;28;1918;-65
2023/05/19 10:25:42;;;;;;;;;;;;;;;22.68;68.98;99704.66;5051476;28;1196;-65
2023/05/19 10:28:13;;;;;;;;;;;;;;;22.76;67.57;99700.16;5051657;28;847;-65
2023/05/19 10:30:48;;;;;;;;;;;;;;;23.09;68.50;99698.34;5051583;28;843;-64
2023/05/19 10:33:19;;;;;;;;;;;;;;;23.54;68.77;99699.69;5051579;28;866;-66
2023/05/19 10:35:46;;;;;;;;;;;;;;;23.95;65.90;99698.88;5051441;28;1021;-66
2023/05/19 10:38:27;;;;;;;;;;;;;;;24.18;67.30;99697.03;5052096;28;843;-66
2023/05/19 10:40:58;;;;;;;;;;;;;;;24.09;66.24;99705.66;5051392;28;863;-66
2023/05/19 10:43:44;;;;;;;;;;;;;;;24.08;64.96;99702.06;5051521;28;1913;-65
2023/05/19 10:46:11;;;;;;;;;;;;;;;23.79;63.53;99714.34;5051634;28;843;-65
2023/05/19 10:48:42;;;;;;;;;;;;;;;23.35;63.94;99710.47;5050785;28;855;-65
2023/05/19 10:51:11;;;;;;;;;;;;;;;23.12;67.75;99720.69;5051673;28;820;-66
2023/05/19 10:53:40;;;;;;;;;;;;;;;22.98;70.79;99724.28;5051766;28;840;-65
2023/05/19 10:56:08;;;;;;;;;;;;;;;22.57;66.11;99721.38;5051298;28;852;-64
2023/05/19 10:58:41;;;;;;;;;;;;;;;22.19;64.51;99714.56;5051478;28;839;-64
2023/05/19 11:01:16;;;;;;;;;;;;;;;21.93;63.29;99714.34;5051303;28;866;-63
2023/05/19 11:03:47;;;;;;;;;;;;;;;21.89;63.87;99711.75;5051209;28;1890;-62
2023/05/19 11:06:31;;;;;;;;;;;;;;;21.83;64.21;99716.50;5051512;28;827;-65
2023/05/19 11:09:09;;;;;;;;;;;;;;;21.95;64.49;99714.66;5051084;28;1027;-66
2023/05/19 11:11:45;;;;;;;;;;;;;;;22.27;65.05;99715.75;5050954;28;1418;-64
2023/05/19 11:14:13;;;;;;;;;;;;;;;22.74;63.53;99716.75;5051155;28;895;-64
2023/05/19 11:16:44;;;;;;;;;;;;;;;23.18;61.89;99715.13;5051292;28;855;-64
2023/05/19 11:19:25;;;;;;;;;;;;;;;23.72;62.66;99709.88;5051416;28;962;-64
2023/05/19 11:21:56;;;;;;;;;;;;;;;25.50;59.25;99701.78;5051121;28;823;-65
2023/05/19 11:24:41;;;;;;;;;;;;;;;25.50;56.87;99692.50;5050989;28;1985;-65
2023/05/19 11:27:27;;;;;;;;;;;;;;;25.68;58.29;99692.81;5050911;28;970;-65
2023/05/19 11:29:55;;;;;;;;;;;;;;;25.92;59.98;99682.34;5051024;28;847;-65
2023/05/19 11:32:25;;;;;;;;;;;;;;;27.52;59.45;99679.56;5051035;28;846;-66
2023/05/19 11:34:52;;;;;;;;;;;;;;;29.31;55.93;99679.38;5050922;28;803;-65
2023/05/19 11:37:19;;;;;;;;;;;;;;;28.77;54.54;99683.06;5050943;28;855;-65
2023/05/19 11:39:46;;;;;;;;;;;;;;;28.54;48.57;99685.38;5050820;28;852;-64
2023/05/19 11:42:13;;;;;;;;;;;;;;;28.59;41.74;99676.00;5050862;28;883;-65
2023/05/19 11:44:44;;;;;;;;;;;;;;;29.01;38.47;99673.75;5050818;28;1934;-64
2023/05/19 11:47:12;;;;;;;;;;;;;;;28.46;36.85;99676.59;5051118;28;847;-63
2023/05/19 12:01:48;;;;;;;;;;;;;;;27.71;38.72;99669.13;5054392;28;634;-65
2023/05/19 12:04:15;;;;;;;;;;;;;;;26.89;38.85;99670.50;5054209;28;1898;-65
2023/05/19 12:06:42;;;;;;;;;;;;;;;26.15;39.42;99671.84;5054275;28;807;-65
2023/05/19 12:09:09;;;;;;;;;;;;;;;25.64;39.37;99677.38;5054047;28;882;-66
2023/05/19 12:11:36;;;;;;;;;;;;;;;25.74;40.15;99677.94;5053878;28;1566;-66
2023/05/19 12:14:04;;;;;;;;;;;;;;;25.72;40.27;99692.59;5054118;28;835;-64
2023/05/19 12:16:34;;;;;;;;;;;;;;;26.54;38.19;99680.31;5054191;28;937;-66
2023/05/19 12:19:04;;;;;;;;;;;;;;;28.11;36.75;99664.00;5054654;28;838;-64
2023/05/19 12:21:31;;;;;;;;;;;;;;;27.98;35.45;99667.44;5054218;28;808;-63
2023/05/19 12:23:59;;;;;;;;;;;;;;;27.73;36.43;99660.88;5053816;28;1914;-65
2023/05/19 12:26:26;;;;;;;;;;;;;;;28.80;35.07;99653.56;5053834;28;808;-63
2023/05/19 12:28:53;;;;;;;;;;;;;;;30.11;32.38;99652.09;5053728;28;875;-64
2023/05/19 12:31:23;;;;;;;;;;;;;;;30.52;30.94;99668.03;5053902;28;859;-65
2023/05/19 12:33:50;;;;;;;;;;;;;;;30.05;30.39;99670.59;5035864;28;1338;-66
2023/05/19 12:36:17;;;;;;;;;;;;;;;29.62;30.77;99668.63;5035775;28;1192;-65
2023/05/19 12:38:46;;;;;;;;;;;;;;;30.00;30.50;99658.00;5035589;28;871;-67
2023/05/19 12:41:13;;;;;;;;;;;;;;;30.66;31.38;99674.53;5053622;28;823;-64
2023/05/19 12:43:40;;;;;;;;;;;;;;;31.24;28.93;99672.91;5053398;28;1890;-68
2023/05/19 12:46:10;;;;;;;;;;;;;;;30.82;28.69;99666.97;5053533;28;847;-67
2023/05/19 12:48:40;;;;;;;;;;;;;;;30.71;28.76;99679.34;5053470;28;824;-66
2023/05/19 12:51:07;;;;;;;;;;;;;;;30.43;28.31;99676.25;5053450;28;828;-65
2023/05/19 12:53:35;;;;;;;;;;;;;;;30.39;29.18;99678.63;5053312;28;847;-66
2023/05/19 12:56:09;;;;;;;;;;;;;;;31.23;29.42;99673.44;5053375;28;811;-68
2023/05/19 12:58:37;;;;;;;;;;;;;;;31.03;27.97;99669.19;5035525;28;1216;-64
2023/05/19 13:01:04;;;;;;;;;;;;;;;30.67;27.61;99681.75;5053503;28;824;-64
2023/05/19 13:03:31;;;;;;;;;;;;;;;30.73;29.08;99668.16;5053191;28;1894;-65
2023/05/19 13:05:58;;;;;;;;;;;;;;;31.07;29.20;99666.78;5053127;28;870;-67
2023/05/19 13:08:26;;;;;;;;;;;;;;;30.61;27.69;99663.97;5053063;28;816;-66
2023/05/19 13:10:54;;;;;;;;;;;;;;;29.90;28.09;99665.41;5052216;28;1365;-64
2023/05/19 13:13:21;;;;;;;;;;;;;;;29.23;28.59;99672.75;5052907;28;871;-63
2023/05/19 13:15:48;;;;;;;;;;;;;;;29.60;29.10;99674.84;5053269;28;804;-63
2023/05/19 13:18:16;;;;;;;;;;;;;;;29.63;28.49;99670.16;5052906;28;911;-63
2023/05/19 13:20:43;;;;;;;;;;;;;;;28.49;29.85;99669.91;5052838;28;934;-65
2023/05/19 13:23:10;;;;;;;;;;;;;;;28.92;30.45;99672.81;5052790;28;1910;-66
2023/05/19 13:25:38;;;;;;;;;;;;;;;29.01;28.92;99680.22;5052949;28;859;-64
2023/05/19 13:28:05;;;;;;;;;;;;;;;29.29;28.47;99679.13;5052672;28;855;-64
2023/05/19 13:30:33;;;;;;;;;;;;;;;29.23;28.79;99672.75;5052646;28;843;-65
2023/05/19 13:33:00;;;;;;;;;;;;;;;29.45;28.32;99677.41;5052706;28;815;-64
2023/05/19 13:35:28;;;;;;;;;;;;;;;29.72;29.13;99664.09;5052473;28;816;-64
2023/05/19 13:37:55;;;;;;;;;;;;;;;30.70;28.84;99665.63;5052447;28;848;-66
2023/05/19 13:40:22;;;;;;;;;;;;;;;31.26;27.90;99661.72;5052353;28;864;-64
2023/05/19 13:42:49;;;;;;;;;;;;;;;31.31;27.28;99662.91;5052337;28;1890;-64
2023/05/19 13:45:15;;;;;;;;;;;;;;;30.90;27.60;99672.81;5052324;28;836;-67
2023/05/19 13:47:42;;;;;;;;;;;;;;;30.90;27.50;99670.72;5052368;28;808;-68
2023/05/19 13:50:09;;;;;;;;;;;;;;;31.11;27.75;99670.03;5052257;28;911;-64
2023/05/19 13:52:36;;;;;;;;;;;;;;;31.85;28.11;99680.69;5052198;28;891;-64
2023/05/19 13:55:05;;;;;;;;;;;;;;;32.25;26.04;99686.28;5052267;28;812;-66
2023/05/19 13:57:31;;;;;;;;;;;;;;;32.32;25.09;99669.16;5052176;28;873;-65
2023/05/19 13:59:59;;;;;;;;;;;;;;;32.15;25.94;99674.53;5034247;28;1216;-63